sensor_id;sensor_type;location;lat;lon;timestamp;pressure;altitude;pressure_sealevel;temperature;humidity
61345;BME280;47216;42.656;23.232;2023-04-06T00:00:18;93648.03;;;0.52;64.60
61345;BME280;47216;42.656;23.232;2023-04-06T00:02:45;93644.50;;;0.59;64.75
61345;BME280;47216;42.656;23.232;2023-04-06T00:05:11;93635.41;;;0.57;64.68
61345;BME280;47216;42.656;23.232;2023-04-06T00:07:38;93632.25;;;0.55;64.08
61345;BME280;47216;42.656;23.232;2023-04-06T00:10:06;93626.34;;;0.61;63.96
61345;BME280;47216;42.656;23.232;2023-04-06T00:12:33;93614.50;;;0.60;63.80
61345;BME280;47216;42.656;23.232;2023-04-06T00:15:00;93620.03;;;0.57;63.84
61345;BME280;47216;42.656;23.232;2023-04-06T00:17:29;93613.91;;;0.58;63.75
61345;BME280;47216;42.656;23.232;2023-04-06T00:19:56;93605.84;;;0.61;63.64
61345;BME280;47216;42.656;23.232;2023-04-06T00:22:23;93605.84;;;0.61;64.01
61345;BME280;47216;42.656;23.232;2023-04-06T00:24:50;93605.03;;;0.60;64.10
61345;BME280;47216;42.656;23.232;2023-04-06T00:27:17;93598.88;;;0.55;63.97
61345;BME280;47216;42.656;23.232;2023-04-06T00:29:43;93606.97;;;0.52;64.32
61345;BME280;47216;42.656;23.232;2023-04-06T00:32:10;93604.22;;;0.53;64.40
61345;BME280;47216;42.656;23.232;2023-04-06T00:34:39;93603.75;;;0.36;64.97
61345;BME280;47216;42.656;23.232;2023-04-06T00:37:05;93596.69;;;0.45;64.49
61345;BME280;47216;42.656;23.232;2023-04-06T00:39:32;93601.41;;;0.41;64.51
61345;BME280;47216;42.656;23.232;2023-04-06T00:41:59;93597.22;;;0.34;64.94
61345;BME280;47216;42.656;23.232;2023-04-06T00:44:26;93598.22;;;0.33;64.75
61345;BME280;47216;42.656;23.232;2023-04-06T00:46:53;93595.44;;;0.34;65.38
61345;BME280;47216;42.656;23.232;2023-04-06T00:49:20;93589.19;;;0.44;65.20
61345;BME280;47216;42.656;23.232;2023-04-06T00:51:48;93599.41;;;0.37;65.47
61345;BME280;47216;42.656;23.232;2023-04-06T00:54:15;93594.88;;;0.39;65.39
61345;BME280;47216;42.656;23.232;2023-04-06T00:56:42;93592.34;;;0.46;65.72
61345;BME280;47216;42.656;23.232;2023-04-06T00:59:10;93596.25;;;0.41;65.42
61345;BME280;47216;42.656;23.232;2023-04-06T01:01:37;93581.47;;;0.44;65.43
61345;BME280;47216;42.656;23.232;2023-04-06T01:04:04;93585.13;;;0.62;65.26
61345;BME280;47216;42.656;23.232;2023-04-06T01:06:31;93583.94;;;0.65;65.01
61345;BME280;47216;42.656;23.232;2023-04-06T01:08:59;93581.78;;;0.69;64.96
61345;BME280;47216;42.656;23.232;2023-04-06T01:11:26;93579.41;;;0.67;64.30
61345;BME280;47216;42.656;23.232;2023-04-06T01:13:53;93579.03;;;0.70;64.63
61345;BME280;47216;42.656;23.232;2023-04-06T01:16:20;93580.56;;;0.65;64.54
61345;BME280;47216;42.656;23.232;2023-04-06T01:18:46;93575.03;;;0.61;64.47
61345;BME280;47216;42.656;23.232;2023-04-06T01:21:13;93573.25;;;0.55;64.76
61345;BME280;47216;42.656;23.232;2023-04-06T01:23:44;93573.44;;;0.60;64.77
61345;BME280;47216;42.656;23.232;2023-04-06T01:26:11;93578.16;;;0.50;64.72
61345;BME280;47216;42.656;23.232;2023-04-06T01:28:38;93573.81;;;0.50;65.54
61345;BME280;47216;42.656;23.232;2023-04-06T01:31:07;93568.72;;;0.57;65.02
61345;BME280;47216;42.656;23.232;2023-04-06T01:33:35;93570.09;;;0.59;64.38
61345;BME280;47216;42.656;23.232;2023-04-06T01:36:02;93560.41;;;0.55;64.71
61345;BME280;47216;42.656;23.232;2023-04-06T01:38:29;93568.31;;;0.60;65.28
61345;BME280;47216;42.656;23.232;2023-04-06T01:40:57;93573.47;;;0.67;64.88
61345;BME280;47216;42.656;23.232;2023-04-06T01:43:24;93564.34;;;0.51;64.48
61345;BME280;47216;42.656;23.232;2023-04-06T01:45:51;93564.94;;;0.53;65.42
61345;BME280;47216;42.656;23.232;2023-04-06T01:48:18;93565.19;;;0.65;65.48
61345;BME280;47216;42.656;23.232;2023-04-06T01:50:45;93563.22;;;0.67;64.37
61345;BME280;47216;42.656;23.232;2023-04-06T01:53:12;93564.00;;;0.60;64.98
61345;BME280;47216;42.656;23.232;2023-04-06T01:55:39;93554.53;;;0.61;65.22
61345;BME280;47216;42.656;23.232;2023-04-06T01:58:07;93554.56;;;0.74;64.65
61345;BME280;47216;42.656;23.232;2023-04-06T02:00:34;93555.50;;;0.60;64.51
61345;BME280;47216;42.656;23.232;2023-04-06T02:03:01;93549.78;;;0.58;65.04
61345;BME280;47216;42.656;23.232;2023-04-06T02:05:29;93552.53;;;0.56;64.97
61345;BME280;47216;42.656;23.232;2023-04-06T02:07:56;93545.03;;;0.55;65.39
61345;BME280;47216;42.656;23.232;2023-04-06T02:10:23;93545.47;;;0.65;65.13
61345;BME280;47216;42.656;23.232;2023-04-06T02:12:50;93545.81;;;0.62;65.07
61345;BME280;47216;42.656;23.232;2023-04-06T02:15:18;93549.00;;;0.64;64.65
61345;BME280;47216;42.656;23.232;2023-04-06T02:17:45;93547.81;;;0.67;64.57
61345;BME280;47216;42.656;23.232;2023-04-06T02:20:12;93550.19;;;0.68;64.77
61345;BME280;47216;42.656;23.232;2023-04-06T02:22:39;93550.38;;;0.60;65.32
61345;BME280;47216;42.656;23.232;2023-04-06T02:25:06;93549.78;;;0.65;64.94
61345;BME280;47216;42.656;23.232;2023-04-06T02:27:34;93552.94;;;0.60;64.64
61345;BME280;47216;42.656;23.232;2023-04-06T02:30:01;93550.97;;;0.62;65.17
61345;BME280;47216;42.656;23.232;2023-04-06T02:32:29;93537.56;;;0.67;65.20
61345;BME280;47216;42.656;23.232;2023-04-06T02:34:56;93547.84;;;0.73;64.88
61345;BME280;47216;42.656;23.232;2023-04-06T02:37:23;93538.94;;;0.69;64.85
61345;BME280;47216;42.656;23.232;2023-04-06T02:39:50;93542.66;;;0.60;65.24
61345;BME280;47216;42.656;23.232;2023-04-06T02:42:17;93554.56;;;0.74;65.33
61345;BME280;47216;42.656;23.232;2023-04-06T02:44:43;93549.41;;;0.68;64.24
61345;BME280;47216;42.656;23.232;2023-04-06T02:47:10;93547.78;;;0.60;65.21
61345;BME280;47216;42.656;23.232;2023-04-06T02:49:38;93544.47;;;0.66;64.78
61345;BME280;47216;42.656;23.232;2023-04-06T02:52:05;93544.09;;;0.82;65.23
61345;BME280;47216;42.656;23.232;2023-04-06T02:54:32;93547.84;;;0.73;64.44
61345;BME280;47216;42.656;23.232;2023-04-06T02:56:59;93540.69;;;0.62;64.99
61345;BME280;47216;42.656;23.232;2023-04-06T02:59:25;93543.50;;;0.67;65.11
61345;BME280;47216;42.656;23.232;2023-04-06T03:01:52;93549.00;;;0.71;65.11
61345;BME280;47216;42.656;23.232;2023-04-06T03:04:19;93547.84;;;0.73;64.89
61345;BME280;47216;42.656;23.232;2023-04-06T03:06:49;93550.19;;;0.68;64.69
61345;BME280;47216;42.656;23.232;2023-04-06T03:09:16;93542.31;;;0.70;65.02
61345;BME280;47216;42.656;23.232;2023-04-06T03:11:43;93550.22;;;0.75;65.06
61345;BME280;47216;42.656;23.232;2023-04-06T03:14:09;93545.88;;;0.75;65.19
61345;BME280;47216;42.656;23.232;2023-04-06T03:16:36;93557.28;;;0.59;65.14
61345;BME280;47216;42.656;23.232;2023-04-06T03:19:03;93543.47;;;0.54;65.54
61345;BME280;47216;42.656;23.232;2023-04-06T03:21:30;93543.47;;;0.54;65.65
61345;BME280;47216;42.656;23.232;2023-04-06T03:23:58;93539.53;;;0.58;65.83
61345;BME280;47216;42.656;23.232;2023-04-06T03:26:25;93545.81;;;0.62;65.95
61345;BME280;47216;42.656;23.232;2023-04-06T03:28:51;93544.28;;;0.68;65.30
61345;BME280;47216;42.656;23.232;2023-04-06T03:31:18;93541.50;;;0.69;65.14
61345;BME280;47216;42.656;23.232;2023-04-06T03:33:45;93544.47;;;0.66;65.55
61345;BME280;47216;42.656;23.232;2023-04-06T03:36:12;93540.09;;;0.60;65.69
61345;BME280;47216;42.656;23.232;2023-04-06T03:38:39;93548.59;;;0.60;65.48
61345;BME280;47216;42.656;23.232;2023-04-06T03:41:07;93532.63;;;0.65;65.79
61345;BME280;47216;42.656;23.232;2023-04-06T03:43:34;93532.25;;;0.68;65.55
61345;BME280;47216;42.656;23.232;2023-04-06T03:46:01;93539.53;;;0.71;65.66
61345;BME280;47216;42.656;23.232;2023-04-06T03:48:27;93543.72;;;0.86;65.02
61345;BME280;47216;42.656;23.232;2023-04-06T03:50:54;93537.00;;;0.84;64.91
61345;BME280;47216;42.656;23.232;2023-04-06T03:53:21;93540.56;;;0.83;64.66
61345;BME280;47216;42.656;23.232;2023-04-06T03:55:48;93539.16;;;0.74;65.00
61345;BME280;47216;42.656;23.232;2023-04-06T03:58:17;93536.00;;;0.72;65.23
61345;BME280;47216;42.656;23.232;2023-04-06T04:00:43;93531.25;;;0.76;65.23
61345;BME280;47216;42.656;23.232;2023-04-06T04:03:10;93532.84;;;0.70;65.01
61345;BME280;47216;42.656;23.232;2023-04-06T04:05:37;93542.53;;;0.75;64.87
61345;BME280;47216;42.656;23.232;2023-04-06T04:08:04;93540.34;;;0.78;64.97
61345;BME280;47216;42.656;23.232;2023-04-06T04:10:31;93551.44;;;0.86;65.19
61345;BME280;47216;42.656;23.232;2023-04-06T04:12:57;93536.22;;;0.77;64.87
61345;BME280;47216;42.656;23.232;2023-04-06T04:15:26;93536.03;;;0.86;64.76
61345;BME280;47216;42.656;23.232;2023-04-06T04:17:52;93540.75;;;0.82;64.33
61345;BME280;47216;42.656;23.232;2023-04-06T04:20:19;93540.34;;;0.65;64.73
61345;BME280;47216;42.656;23.232;2023-04-06T04:22:46;93535.59;;;0.69;64.83
61345;BME280;47216;42.656;23.232;2023-04-06T04:25:13;93534.41;;;0.71;64.67
61345;BME280;47216;42.656;23.232;2023-04-06T04:27:40;93529.28;;;0.78;65.28
61345;BME280;47216;42.656;23.232;2023-04-06T04:30:08;93543.13;;;0.83;64.54
61345;BME280;47216;42.656;23.232;2023-04-06T04:32:36;93538.00;;;0.83;64.76
61345;BME280;47216;42.656;23.232;2023-04-06T04:35:03;93539.56;;;0.84;64.76
61345;BME280;47216;42.656;23.232;2023-04-06T04:37:30;93540.00;;;0.95;64.38
61345;BME280;47216;42.656;23.232;2023-04-06T04:39:57;93540.97;;;0.94;64.69
61345;BME280;47216;42.656;23.232;2023-04-06T04:42:23;93543.53;;;0.94;64.18
61345;BME280;47216;42.656;23.232;2023-04-06T04:44:50;93544.53;;;0.99;64.26
61345;BME280;47216;42.656;23.232;2023-04-06T04:47:17;93546.28;;;0.99;64.02
61345;BME280;47216;42.656;23.232;2023-04-06T04:49:45;93535.03;;;0.87;64.38
61345;BME280;47216;42.656;23.232;2023-04-06T04:52:12;93536.84;;;0.99;64.13
61345;BME280;47216;42.656;23.232;2023-04-06T04:54:39;93540.19;;;1.00;64.18
61345;BME280;47216;42.656;23.232;2023-04-06T04:57:06;93538.81;;;1.11;64.12
61345;BME280;47216;42.656;23.232;2023-04-06T04:59:34;93532.72;;;1.25;63.58
61345;BME280;47216;42.656;23.232;2023-04-06T05:02:00;93538.81;;;1.17;63.71
61345;BME280;47216;42.656;23.232;2023-04-06T05:04:27;93539.22;;;1.21;63.77
61345;BME280;47216;42.656;23.232;2023-04-06T05:07:04;93530.72;;;1.20;63.19
61345;BME280;47216;42.656;23.232;2023-04-06T05:09:30;93527.34;;;1.13;63.61
61345;BME280;47216;42.656;23.232;2023-04-06T05:11:58;93525.38;;;1.15;63.83
61345;BME280;47216;42.656;23.232;2023-04-06T05:14:24;93521.81;;;1.03;63.36
61345;BME280;47216;42.656;23.232;2023-04-06T05:16:51;93523.59;;;1.02;63.94
61345;BME280;47216;42.656;23.232;2023-04-06T05:19:18;93527.75;;;1.03;63.86
61345;BME280;47216;42.656;23.232;2023-04-06T05:21:45;93523.03;;;1.20;64.21
61345;BME280;47216;42.656;23.232;2023-04-06T05:24:14;93519.06;;;1.24;63.65
61345;BME280;47216;42.656;23.232;2023-04-06T05:26:41;93521.25;;;1.28;63.50
61345;BME280;47216;42.656;23.232;2023-04-06T05:29:08;93520.25;;;1.29;63.44
61345;BME280;47216;42.656;23.232;2023-04-06T05:31:34;93520.66;;;1.32;63.65
61345;BME280;47216;42.656;23.232;2023-04-06T05:34:01;93517.09;;;1.33;63.26
61345;BME280;47216;42.656;23.232;2023-04-06T05:36:28;93520.44;;;1.47;63.27
61345;BME280;47216;42.656;23.232;2023-04-06T05:38:55;93517.44;;;1.57;63.27
61345;BME280;47216;42.656;23.232;2023-04-06T05:41:24;93516.06;;;1.54;63.03
61345;BME280;47216;42.656;23.232;2023-04-06T05:43:51;93511.94;;;1.60;62.84
61345;BME280;47216;42.656;23.232;2023-04-06T05:46:18;93513.91;;;1.58;62.67
61345;BME280;47216;42.656;23.232;2023-04-06T05:48:45;93515.84;;;1.76;62.44
61345;BME280;47216;42.656;23.232;2023-04-06T05:51:12;93512.69;;;1.74;62.47
61345;BME280;47216;42.656;23.232;2023-04-06T05:53:39;93515.03;;;1.75;62.36
61345;BME280;47216;42.656;23.232;2023-04-06T05:56:06;93517.44;;;1.70;62.23
61345;BME280;47216;42.656;23.232;2023-04-06T05:58:34;93514.84;;;1.77;62.21
61345;BME280;47216;42.656;23.232;2023-04-06T06:01:01;93508.75;;;1.64;62.81
61345;BME280;47216;42.656;23.232;2023-04-06T06:03:28;93512.72;;;1.60;62.52
61345;BME280;47216;42.656;23.232;2023-04-06T06:05:59;93511.69;;;1.68;62.79
61345;BME280;47216;42.656;23.232;2023-04-06T06:08:26;93509.53;;;1.78;62.91
61345;BME280;47216;42.656;23.232;2023-04-06T06:10:53;93511.28;;;1.78;62.53
61345;BME280;47216;42.656;23.232;2023-04-06T06:13:20;93509.13;;;1.75;62.85
61345;BME280;47216;42.656;23.232;2023-04-06T06:15:48;93506.38;;;1.76;62.13
61345;BME280;47216;42.656;23.232;2023-04-06T06:18:15;93514.25;;;1.81;62.38
61345;BME280;47216;42.656;23.232;2023-04-06T06:20:42;93510.31;;;1.79;62.66
61345;BME280;47216;42.656;23.232;2023-04-06T06:23:09;93511.50;;;1.76;62.02
61345;BME280;47216;42.656;23.232;2023-04-06T06:25:36;93520.59;;;1.79;62.60
61345;BME280;47216;42.656;23.232;2023-04-06T06:28:03;93516.22;;;1.86;62.57
61345;BME280;47216;42.656;23.232;2023-04-06T06:30:29;93505.50;;;2.02;62.52
61345;BME280;47216;42.656;23.232;2023-04-06T06:32:57;93498.97;;;2.06;61.95
61345;BME280;47216;42.656;23.232;2023-04-06T06:35:24;93505.66;;;2.14;62.02
61345;BME280;47216;42.656;23.232;2023-04-06T06:37:51;93503.91;;;2.08;61.38
61345;BME280;47216;42.656;23.232;2023-04-06T06:40:18;93507.88;;;2.04;61.83
61345;BME280;47216;42.656;23.232;2023-04-06T06:42:47;93515.41;;;1.92;61.63
61345;BME280;47216;42.656;23.232;2023-04-06T06:45:14;93515.63;;;1.84;62.52
61345;BME280;47216;42.656;23.232;2023-04-06T06:47:41;93522.16;;;1.86;63.00
61345;BME280;47216;42.656;23.232;2023-04-06T06:50:09;93524.09;;;1.91;62.77
61345;BME280;47216;42.656;23.232;2023-04-06T06:52:36;93521.09;;;2.07;61.75
61345;BME280;47216;42.656;23.232;2023-04-06T06:55:03;93521.06;;;2.21;62.21
61345;BME280;47216;42.656;23.232;2023-04-06T06:57:30;93521.22;;;2.26;61.22
61345;BME280;47216;42.656;23.232;2023-04-06T06:59:57;93522.06;;;2.13;61.59
61345;BME280;47216;42.656;23.232;2023-04-06T07:02:25;93514.34;;;2.20;61.47
61345;BME280;47216;42.656;23.232;2023-04-06T07:04:52;93513.06;;;2.36;60.60
61345;BME280;47216;42.656;23.232;2023-04-06T07:07:20;93512.00;;;2.57;60.59
61345;BME280;47216;42.656;23.232;2023-04-06T07:09:47;93517.19;;;2.50;61.16
61345;BME280;47216;42.656;23.232;2023-04-06T07:12:13;93515.59;;;2.49;61.07
61345;BME280;47216;42.656;23.232;2023-04-06T07:14:41;93511.22;;;2.49;61.03
61345;BME280;47216;42.656;23.232;2023-04-06T07:17:08;93515.38;;;2.50;60.50
61345;BME280;47216;42.656;23.232;2023-04-06T07:19:36;93518.72;;;2.58;60.47
61345;BME280;47216;42.656;23.232;2023-04-06T07:22:03;93509.00;;;2.60;60.69
61345;BME280;47216;42.656;23.232;2023-04-06T07:24:31;93512.97;;;2.56;60.43
61345;BME280;47216;42.656;23.232;2023-04-06T07:26:58;93519.91;;;2.55;60.53
61345;BME280;47216;42.656;23.232;2023-04-06T07:29:25;93517.41;;;2.42;60.46
61345;BME280;47216;42.656;23.232;2023-04-06T07:31:52;93518.38;;;2.47;60.57
61345;BME280;47216;42.656;23.232;2023-04-06T07:34:20;93515.44;;;2.37;61.00
61345;BME280;47216;42.656;23.232;2023-04-06T07:36:47;93512.63;;;2.52;60.65
61345;BME280;47216;42.656;23.232;2023-04-06T07:39:14;93507.25;;;2.53;60.42
61345;BME280;47216;42.656;23.232;2023-04-06T07:41:42;93509.16;;;2.65;60.71
61345;BME280;47216;42.656;23.232;2023-04-06T07:44:09;93508.56;;;2.69;62.27
61345;BME280;47216;42.656;23.232;2023-04-06T07:46:36;93511.09;;;2.76;61.18
61345;BME280;47216;42.656;23.232;2023-04-06T07:49:03;93514.25;;;2.78;60.25
61345;BME280;47216;42.656;23.232;2023-04-06T07:51:30;93514.31;;;2.65;60.64
61345;BME280;47216;42.656;23.232;2023-04-06T07:53:56;93509.00;;;2.60;60.24
61345;BME280;47216;42.656;23.232;2023-04-06T07:56:24;93501.28;;;2.60;60.51
61345;BME280;47216;42.656;23.232;2023-04-06T07:58:52;93509.63;;;2.55;60.86
61345;BME280;47216;42.656;23.232;2023-04-06T08:01:21;93506.66;;;2.51;60.80
61345;BME280;47216;42.656;23.232;2023-04-06T08:03:48;93500.94;;;2.49;60.61
61345;BME280;47216;42.656;23.232;2023-04-06T08:06:15;93508.41;;;2.58;60.67
61345;BME280;47216;42.656;23.232;2023-04-06T08:08:42;93516.94;;;2.58;60.69
61345;BME280;47216;42.656;23.232;2023-04-06T08:11:09;93506.88;;;2.50;60.41
61345;BME280;47216;42.656;23.232;2023-04-06T08:13:36;93518.78;;;2.44;60.72
61345;BME280;47216;42.656;23.232;2023-04-06T08:16:05;93511.28;;;2.43;60.55
61345;BME280;47216;42.656;23.232;2023-04-06T08:18:32;93515.25;;;2.39;60.68
61345;BME280;47216;42.656;23.232;2023-04-06T08:20:59;93520.97;;;2.41;60.79
61345;BME280;47216;42.656;23.232;2023-04-06T08:23:26;93518.16;;;2.49;60.73
61345;BME280;47216;42.656;23.232;2023-04-06T08:25:53;93522.09;;;2.51;60.47
61345;BME280;47216;42.656;23.232;2023-04-06T08:28:21;93537.38;;;2.46;60.23
61345;BME280;47216;42.656;23.232;2023-04-06T08:30:48;93520.00;;;2.35;60.09
61345;BME280;47216;42.656;23.232;2023-04-06T08:33:16;93524.16;;;2.36;60.19
61345;BME280;47216;42.656;23.232;2023-04-06T08:35:43;93519.13;;;2.55;60.09
61345;BME280;47216;42.656;23.232;2023-04-06T08:38:10;93522.19;;;2.70;60.07
61345;BME280;47216;42.656;23.232;2023-04-06T08:40:37;93513.72;;;2.63;59.77
61345;BME280;47216;42.656;23.232;2023-04-06T08:43:06;93531.72;;;2.69;60.44
61345;BME280;47216;42.656;23.232;2023-04-06T08:45:36;93521.44;;;2.63;60.17
61345;BME280;47216;42.656;23.232;2023-04-06T08:48:05;93527.16;;;2.71;60.17
61345;BME280;47216;42.656;23.232;2023-04-06T08:50:34;93526.13;;;2.79;59.59
61345;BME280;47216;42.656;23.232;2023-04-06T08:53:02;93523.72;;;2.84;60.48
61345;BME280;47216;42.656;23.232;2023-04-06T08:55:29;93522.88;;;2.90;59.14
61345;BME280;47216;42.656;23.232;2023-04-06T09:01:23;93523.66;;;2.91;59.90
61345;BME280;47216;42.656;23.232;2023-04-06T09:27:31;93510.41;;;3.19;57.26
61345;BME280;47216;42.656;23.232;2023-04-06T09:30:17;93506.09;;;3.13;58.39
61345;BME280;47216;42.656;23.232;2023-04-06T10:06:27;93496.63;;;3.94;55.17
61345;BME280;47216;42.656;23.232;2023-04-06T10:09:12;93492.13;;;3.89;55.25
61345;BME280;47216;42.656;23.232;2023-04-06T10:11:58;93494.19;;;3.99;55.43
61345;BME280;47216;42.656;23.232;2023-04-06T10:14:42;93488.38;;;4.22;55.30
61345;BME280;47216;42.656;23.232;2023-04-06T10:17:27;93480.09;;;4.50;54.84
61345;BME280;47216;42.656;23.232;2023-04-06T10:20:15;93486.53;;;4.59;54.42
61345;BME280;47216;42.656;23.232;2023-04-06T10:23:06;93473.00;;;4.46;53.46
61345;BME280;47216;42.656;23.232;2023-04-06T10:25:53;93465.69;;;4.42;54.98
61345;BME280;47216;42.656;23.232;2023-04-06T10:28:37;93468.66;;;4.46;54.84
61345;BME280;47216;42.656;23.232;2023-04-06T10:31:25;93466.88;;;4.58;53.98
61345;BME280;47216;42.656;23.232;2023-04-06T10:34:09;93462.50;;;4.59;53.40
61345;BME280;47216;42.656;23.232;2023-04-06T10:36:54;93464.31;;;4.58;54.11
61345;BME280;47216;42.656;23.232;2023-04-06T10:39:47;93478.28;;;4.69;52.42
61345;BME280;47216;42.656;23.232;2023-04-06T10:42:36;93467.13;;;4.69;54.39
61345;BME280;47216;42.656;23.232;2023-04-06T13:06:41;93392.28;;;5.39;50.59
61345;BME280;47216;42.656;23.232;2023-04-06T13:09:08;93389.59;;;5.34;50.10
61345;BME280;47216;42.656;23.232;2023-04-06T13:11:35;93388.69;;;5.17;50.26
61345;BME280;47216;42.656;23.232;2023-04-06T13:14:02;93388.81;;;5.22;49.52
61345;BME280;47216;42.656;23.232;2023-04-06T13:16:29;93381.19;;;5.27;49.95
61345;BME280;47216;42.656;23.232;2023-04-06T13:18:56;93383.88;;;5.32;49.79
61345;BME280;47216;42.656;23.232;2023-04-06T13:21:23;93384.75;;;5.26;49.34
61345;BME280;47216;42.656;23.232;2023-04-06T13:23:51;93377.13;;;5.31;49.80
61345;BME280;47216;42.656;23.232;2023-04-06T13:26:18;93369.72;;;5.23;50.24
61345;BME280;47216;42.656;23.232;2023-04-06T13:28:45;93379.94;;;5.41;49.69
61345;BME280;47216;42.656;23.232;2023-04-06T13:31:12;93377.09;;;5.55;49.15
61345;BME280;47216;42.656;23.232;2023-04-06T13:33:39;93373.97;;;5.53;49.27
61345;BME280;47216;42.656;23.232;2023-04-06T13:36:06;93377.91;;;5.43;49.84
61345;BME280;47216;42.656;23.232;2023-04-06T13:38:33;93385.00;;;5.36;50.01
61345;BME280;47216;42.656;23.232;2023-04-06T13:41:01;93386.88;;;5.29;50.36
61345;BME280;47216;42.656;23.232;2023-04-06T13:43:28;93387.03;;;5.34;51.12
61345;BME280;47216;42.656;23.232;2023-04-06T13:45:56;93386.47;;;5.32;51.36
61345;BME280;47216;42.656;23.232;2023-04-06T13:48:26;93377.66;;;5.45;50.77
61345;BME280;47216;42.656;23.232;2023-04-06T13:50:52;93386.56;;;5.37;50.68
61345;BME280;47216;42.656;23.232;2023-04-06T13:53:19;93380.03;;;5.35;50.80
61345;BME280;47216;42.656;23.232;2023-04-06T13:55:52;93380.38;;;5.38;51.16
61345;BME280;47216;42.656;23.232;2023-04-06T13:58:20;93368.28;;;5.15;50.94
61345;BME280;47216;42.656;23.232;2023-04-06T14:00:47;93365.44;;;5.17;52.91
61345;BME280;47216;42.656;23.232;2023-04-06T14:03:14;93368.13;;;5.22;51.09
61345;BME280;47216;42.656;23.232;2023-04-06T14:05:41;93381.31;;;5.09;51.67
61345;BME280;47216;42.656;23.232;2023-04-06T14:08:08;93378.47;;;5.10;51.41
61345;BME280;47216;42.656;23.232;2023-04-06T14:10:37;93382.66;;;5.11;51.49
61345;BME280;47216;42.656;23.232;2023-04-06T14:13:04;93384.56;;;5.04;51.98
61345;BME280;47216;42.656;23.232;2023-04-06T14:15:33;93384.97;;;5.01;51.81
61345;BME280;47216;42.656;23.232;2023-04-06T14:18:00;93382.97;;;4.91;51.65
61345;BME280;47216;42.656;23.232;2023-04-06T14:20:26;93380.59;;;4.90;51.43
61345;BME280;47216;42.656;23.232;2023-04-06T14:22:53;93388.38;;;5.01;52.51
61345;BME280;47216;42.656;23.232;2023-04-06T14:25:21;93373.09;;;5.12;51.39
61345;BME280;47216;42.656;23.232;2023-04-06T14:27:48;93383.44;;;5.12;52.17
61345;BME280;47216;42.656;23.232;2023-04-06T14:30:15;93383.88;;;5.09;51.42
61345;BME280;47216;42.656;23.232;2023-04-06T14:32:43;93389.16;;;5.14;51.12
61345;BME280;47216;42.656;23.232;2023-04-06T14:35:10;93392.53;;;5.14;51.32
61345;BME280;47216;42.656;23.232;2023-04-06T14:37:37;93388.59;;;5.12;50.86
61345;BME280;47216;42.656;23.232;2023-04-06T14:40:05;93393.53;;;5.25;51.46
61345;BME280;47216;42.656;23.232;2023-04-06T14:42:32;93391.06;;;5.30;50.70
61345;BME280;47216;42.656;23.232;2023-04-06T14:44:59;93390.16;;;5.36;51.40
61345;BME280;47216;42.656;23.232;2023-04-06T14:47:25;93401.72;;;5.10;50.77
61345;BME280;47216;42.656;23.232;2023-04-06T14:49:54;93392.41;;;4.97;50.76
61345;BME280;47216;42.656;23.232;2023-04-06T14:52:20;93387.25;;;4.97;50.56
61345;BME280;47216;42.656;23.232;2023-04-06T14:54:47;93395.78;;;4.86;50.57
61345;BME280;47216;42.656;23.232;2023-04-06T14:57:14;93390.16;;;4.89;50.08
61345;BME280;47216;42.656;23.232;2023-04-06T14:59:41;93388.03;;;4.86;50.59
61345;BME280;47216;42.656;23.232;2023-04-06T15:02:07;93397.47;;;5.04;50.02
61345;BME280;47216;42.656;23.232;2023-04-06T15:04:34;93388.59;;;5.12;50.11
61345;BME280;47216;42.656;23.232;2023-04-06T15:07:03;93389.06;;;5.09;49.64
61345;BME280;47216;42.656;23.232;2023-04-06T15:09:29;93392.31;;;5.04;49.72
61345;BME280;47216;42.656;23.232;2023-04-06T15:11:56;93395.09;;;5.02;50.17
61345;BME280;47216;42.656;23.232;2023-04-06T15:14:23;93399.13;;;4.98;49.19
61345;BME280;47216;42.656;23.232;2023-04-06T15:16:50;93404.50;;;4.85;50.92
61345;BME280;47216;42.656;23.232;2023-04-06T15:19:17;93410.59;;;4.79;50.15
61345;BME280;47216;42.656;23.232;2023-04-06T15:21:44;93401.13;;;4.73;51.44
61345;BME280;47216;42.656;23.232;2023-04-06T15:24:12;93412.13;;;4.68;50.85
61345;BME280;47216;42.656;23.232;2023-04-06T15:26:39;93412.16;;;4.80;51.32
61345;BME280;47216;42.656;23.232;2023-04-06T15:29:05;93413.28;;;4.84;50.77
61345;BME280;47216;42.656;23.232;2023-04-06T15:31:33;93406.66;;;4.76;51.71
61345;BME280;47216;42.656;23.232;2023-04-06T15:34:00;93426.94;;;4.73;51.38
61345;BME280;47216;42.656;23.232;2023-04-06T15:36:28;93424.94;;;4.75;51.13
61345;BME280;47216;42.656;23.232;2023-04-06T15:38:56;93428.41;;;4.80;51.69
61345;BME280;47216;42.656;23.232;2023-04-06T15:41:24;93430.09;;;4.75;52.17
61345;BME280;47216;42.656;23.232;2023-04-06T15:43:52;93438.44;;;4.77;52.23
61345;BME280;47216;42.656;23.232;2023-04-06T15:46:19;93432.81;;;4.80;52.64
61345;BME280;47216;42.656;23.232;2023-04-06T15:48:46;93427.88;;;4.78;52.65
61345;BME280;47216;42.656;23.232;2023-04-06T15:51:13;93430.78;;;4.82;53.07
61345;BME280;47216;42.656;23.232;2023-04-06T15:53:40;93433.81;;;4.67;53.97
61345;BME280;47216;42.656;23.232;2023-04-06T15:56:07;93424.25;;;4.68;54.21
61345;BME280;47216;42.656;23.232;2023-04-06T15:58:36;93431.25;;;4.79;53.82
61345;BME280;47216;42.656;23.232;2023-04-06T16:01:10;93433.06;;;4.90;54.04
61345;BME280;47216;42.656;23.232;2023-04-06T16:03:38;93430.69;;;4.89;53.85
61345;BME280;47216;42.656;23.232;2023-04-06T16:06:05;93442.25;;;4.74;53.47
61345;BME280;47216;42.656;23.232;2023-04-06T16:08:32;93441.19;;;4.63;52.85
61345;BME280;47216;42.656;23.232;2023-04-06T16:10:59;93443.13;;;4.68;52.81
61345;BME280;47216;42.656;23.232;2023-04-06T16:13:26;93448.38;;;4.61;52.70
61345;BME280;47216;42.656;23.232;2023-04-06T16:15:54;93451.59;;;4.57;52.89
61345;BME280;47216;42.656;23.232;2023-04-06T16:18:21;93453.50;;;4.50;52.71
61345;BME280;47216;42.656;23.232;2023-04-06T16:20:48;93456.63;;;4.21;53.41
61345;BME280;47216;42.656;23.232;2023-04-06T16:23:15;93457.41;;;4.22;54.05
61345;BME280;47216;42.656;23.232;2023-04-06T16:25:42;93461.69;;;3.98;54.31